Hawaii METAR Reports

 

PHOG - Kahului, Hawaii, USA
Distance from station: WNW 8mi, 13km
Updated: Mon, 10-May-2021 8:54pm HST
Few Clouds
Few Clouds
 Wind from ENE
Wind: ENE 14 mph , 22 km/h, Gust: 24 mph , 39 km/h
Temperature: 75°F , 24°C
Dew Point: 64°F , 18°C
Humidity: 69%
Barometer: 30.03 inHg , 1016.9 hPa
Clouds: Few Clouds
Visibility: 10 miles , 16 km
Cloud details: Few Clouds 4500 ft
2021/05/11 06:54 PHOG 110654Z 07012G21KT 10SM FEW045 24/18 A3003 RMK AO2 SLP175 T02390178
PHJH - Lahaina/West Mau, Hawaii, USA
Distance from station: WNW 24mi, 39km
Updated: Mon, 10-May-2021 2:45pm HST
NOT Current
Partly Cloudy
Partly Cloudy
 Wind from NNE
Wind: NNE 17 mph , 28 km/h
Temperature: 82°F , 28°C
Heat Index: 83°F , 28°C
Dew Point: 63°F , 17°C
Humidity: 51%
Barometer: 30.00 inHg , 1015.9 hPa
Clouds: Partly Cloudy
Visibility: 10 miles , 16 km
Cloud details: Few Clouds 3500 ft
Partly Cloudy 5000 ft
2021/05/11 00:45 PHJH 110045Z 03015KT 10SM FEW035 SCT050 28/17 A3000
 
PHNY - Lanai City Airpo, Hawaii, USA
Distance from station: W 40mi, 65km
Updated: Mon, 10-May-2021 9:38pm HST
Partly Cloudy
Partly Cloudy
 Wind from NE
Wind: NE 7 mph , 11 km/h
Barometer: 30.11 inHg , 1019.6 hPa
Clouds: Partly Cloudy
Visibility: 10 miles , 16 km
Cloud details: Partly Cloudy 1900 ft
2021/05/11 07:38 PHNY 110738Z AUTO 05006KT 10SM SCT019 A3011 RMK AO2 FZRANO $
PHMK - Molokai, Hawaii, USA
Distance from station: WNW 55mi, 88km
Updated: Mon, 10-May-2021 8:54pm HST
Clear
Clear
 Wind from NE
Wind: NE 10 mph , 17 km/h
Temperature: 73°F , 23°C
Dew Point: 64°F , 18°C
Humidity: 74%
Barometer: 30.06 inHg , 1017.9 hPa
Clouds: Clear
Visibility: 10 miles , 16 km
2021/05/11 06:54 PHMK 110654Z AUTO 04009KT 10SM CLR 23/18 A3006 RMK AO2 SLP181 T02280183 TSNO $
 
PHKO - Kailua/Kona, Hawaii, USA
Distance from station: SSE 79mi, 128km
Updated: Mon, 10-May-2021 8:53pm HST
Overcast
Overcast
 Wind from NW
Wind: NW 10 mph , 17 km/h
Temperature: 73°F , 23°C
Dew Point: 70°F , 21°C
Humidity: 89%
Barometer: 30.01 inHg , 1016.3 hPa
Clouds: Overcast
Visibility: 7 miles , 11 km
Cloud details: Few Clouds 3000 ft
Overcast 6000 ft
2021/05/11 06:53 PHKO 110653Z 31009KT 7SM FEW030 OVC060 23/21 A3001 RMK AO2 RAE44 SLP161 P0002 T02330206
PHSF - Bradshaw Aaf/Haw, Hawaii, USA
Distance from station: SE 90mi, 145km
Updated: Mon, 10-May-2021 9:33pm HST
Mist, Overcast
Mist, Overcast
 Wind from WNW
Wind: WNW 5 mph , 7 km/h
Temperature: 54°F , 12°C
Dew Point: 54°F , 12°C
Humidity: 100%
Barometer: 30.33 inHg , 1027.1 hPa
Summary: Mist
Clouds: Overcast
Visibility: 1 mile , 2 km
Cloud details: Overcast 200 ft
2021/05/11 07:33 PHSF 110733Z AUTO 29004KT 1SM BR VV002 12/12 A3033 RMK AO2 VIS 1V2 3/4 SLP153 RVRNO $
 
PHNG - Kaneohe Mcas, Hawaii, USA
Distance from station: WNW 102mi, 164km
Updated: Mon, 10-May-2021 8:57pm HST
Partly Cloudy
Partly Cloudy
 Wind from E
Wind: E 7 mph , 11 km/h
Temperature: 73°F , 23°C
Dew Point: 68°F , 20°C
Humidity: 83%
Barometer: 30.03 inHg , 1016.9 hPa
Clouds: Partly Cloudy
Visibility: 10 miles , 16 km
Cloud details: Partly Cloudy 2200 ft
2021/05/11 06:57 PHNG 110657Z 08006KT 10SM SCT022 23/20 A3003 RMK AO2 SLP165 T02330200
PHNL - Honolulu, Hawaii, USA
Distance from station: WNW 108mi, 174km
Updated: Mon, 10-May-2021 8:53pm HST
Few Clouds
Few Clouds
 Wind from NE
Wind: NE 7 mph , 11 km/h
Temperature: 77°F , 25°C
Dew Point: 64°F , 18°C
Humidity: 65%
Barometer: 30.05 inHg , 1017.6 hPa
Clouds: Few Clouds
Visibility: 10 miles , 16 km
Cloud details: Few Clouds 2300 ft
Few Clouds 4500 ft
2021/05/11 06:53 PHNL 110653Z 04006KT 10SM FEW023 FEW045 25/18 A3005 RMK AO2 SLP174 T02500178
 
PHTO - Hilo, Hawaii, USA
Distance from station: SE 114mi, 183km
Updated: Mon, 10-May-2021 9:34pm HST
Overcast
Overcast
 Wind from SW
Wind: SW 6 mph , 9 km/h
Temperature: 73°F , 23°C
Dew Point: 70°F , 21°C
Humidity: 89%
Barometer: 30.08 inHg , 1018.6 hPa
Clouds: Overcast
Visibility: 10 miles , 16 km
Cloud details: Mostly Cloudy 1800 ft
Mostly Cloudy 2800 ft
Overcast 4400 ft
2021/05/11 07:34 PHTO 110734Z 23005KT 10SM BKN018 BKN028 OVC044 23/21 A3008 RMK AO2 T02330206
PHJR - Kalaeloa, Hawaii, USA
Distance from station: WNW 117mi, 189km
Updated: Mon, 10-May-2021 8:53pm HST
Clear
Clear
 Wind from NE
Wind: NE 7 mph , 11 km/h
Temperature: 75°F , 24°C
Dew Point: 64°F , 18°C
Humidity: 69%
Barometer: 30.06 inHg , 1017.9 hPa
Clouds: Clear
Visibility: 10 miles , 16 km
2021/05/11 06:53 PHJR 110653Z 05006KT 10SM CLR 24/18 A3006 RMK AO2 SLP184 T02390183
 
PHHI - Wheeler Afb/Oahu, Hawaii, USA
Distance from station: WNW 120mi, 193km
Updated: Mon, 10-May-2021 9:07pm HST
Partly Cloudy
Partly Cloudy
 Wind from calm
Wind: Calm
Temperature: 70°F , 21°C
Dew Point: 64°F , 18°C
Humidity: 83%
Barometer: 30.09 inHg , 1019 hPa
Clouds: Partly Cloudy
Visibility: 10 miles , 16 km
Cloud details: Few Clouds 3700 ft
Partly Cloudy 4500 ft
2021/05/11 07:07 PHHI 110707Z AUTO 00000KT 10SM FEW037 SCT045 21/18 A3009 RMK AO2 DZB0658E07DZB07 SLP181 $
PHLI - Lihue/Kauai Is, Hawaii, USA
Distance from station: WNW 209mi, 336km
Updated: Mon, 10-May-2021 8:53pm HST
Mostly Cloudy
Mostly Cloudy
 Wind from ENE
Wind: ENE 14 mph , 22 km/h
Temperature: 75°F , 24°C
Dew Point: 70°F , 21°C
Humidity: 83%
Barometer: 30.08 inHg , 1018.6 hPa
Clouds: Mostly Cloudy
Visibility: 10 miles , 16 km
Cloud details: Few Clouds 2000 ft
Partly Cloudy 2600 ft
Mostly Cloudy 3400 ft
2021/05/11 06:53 PHLI 110653Z 06012KT 10SM FEW020 SCT026 BKN034 24/21 A3008 RMK AO2 SLP182 T02390206
 
PHBK - Barking Sands/Ka, Hawaii, USA
Distance from station: WNW 237mi, 382km
Updated: Mon, 10-May-2021 8:51pm HST
Clear
Clear
 Wind from E
Wind: E 5 mph , 7 km/h
Temperature: 73°F , 23°C
Dew Point: 63°F , 17°C
Humidity: 69%
Barometer: 30.04 inHg , 1017.3 hPa
Clouds: Clear
Visibility: 10 miles , 16 km
2021/05/11 06:51 PHBK 110651Z AUTO 10004KT 10SM CLR 23/17 A3004 RMK AO2 SLP176 T02330172